KAPG/APG METAR and TAF weather

Enter ICAO airport designator
Station Type Date Time Source
KAPG METAR 2019/08/16 23:53 UTC NOAA

KAPG 162353Z 15004KT 7SM SCT040 BKN200 26/23 A2996 RMK SLP148 58004


Station Type Date Time Source
KAPG Decoded METAR 2019/08/16 23:53 UTC NOAA

Station name not available
Aug 16, 2019 - 07:53 PM EDT / 2019.08.16 2353 UTC
Wind: from the SSE (150 degrees) at 5 MPH (4 KT):0
Visibility: 7 mile(s):0
Sky conditions: mostly cloudy
Temperature: 78 F (26 C)
Dew Point: 73 F (23 C)
Relative Humidity: 83%
Pressure (altimeter): 29.96 in. Hg (1014 hPa)
Pressure tendency: 0.01 inches (0.4 hPa) lower than three hours ago
ob: KAPG 162353Z 15004KT 7SM SCT040 BKN200 26/23 A2996 RMK SLP148 58004
cycle: 0

Station Type Date Time Source
KAPG TAF UTC NOAA

Error!

Example: see airport list